createdAt,value
2018-03-20T00:02:05.224Z,4.31
2018-03-20T00:04:33.699Z,4.33
2018-03-20T00:07:03.308Z,4.30
2018-03-20T00:09:32.726Z,4.28
2018-03-20T00:12:01.654Z,4.24
2018-03-20T00:14:30.155Z,4.28
2018-03-20T00:16:58.742Z,4.33
2018-03-20T00:19:27.264Z,4.33
2018-03-20T00:21:55.745Z,4.36
2018-03-20T00:24:24.267Z,4.35
2018-03-20T00:26:52.838Z,4.37
2018-03-20T00:29:22.379Z,4.34
2018-03-20T00:31:50.970Z,4.35
2018-03-20T00:34:19.388Z,4.40
2018-03-20T00:36:47.904Z,4.35
2018-03-20T00:39:16.470Z,4.38
2018-03-20T00:41:45.046Z,4.35
2018-03-20T00:44:13.599Z,4.37
2018-03-20T00:46:42.921Z,4.35
2018-03-20T00:49:11.513Z,4.31
2018-03-20T00:51:39.997Z,4.29
2018-03-20T00:54:09.443Z,4.25
2018-03-20T00:56:38.082Z,4.34
2018-03-20T00:59:06.977Z,4.34
2018-03-20T01:01:35.557Z,4.16
2018-03-20T01:04:04.139Z,4.26
2018-03-20T01:06:34.327Z,4.26
2018-03-20T01:09:02.950Z,4.16
2018-03-20T01:11:31.391Z,4.12
2018-03-20T01:13:59.851Z,4.20
2018-03-20T01:16:28.367Z,4.26
2018-03-20T01:18:56.945Z,4.27
2018-03-20T01:21:25.398Z,4.28
2018-03-20T01:23:53.892Z,4.21
2018-03-20T01:26:22.384Z,4.22
2018-03-20T01:28:50.826Z,4.14
2018-03-20T01:31:19.310Z,4.13
2018-03-20T01:33:48.134Z,4.03
2018-03-20T01:36:16.723Z,4.10
2018-03-20T01:38:46.024Z,3.77
2018-03-20T01:41:14.663Z,3.60
2018-03-20T01:43:43.291Z,3.55
2018-03-20T01:46:12.073Z,3.56
2018-03-20T01:48:40.634Z,3.59
2018-03-20T01:51:09.769Z,3.50
2018-03-20T01:53:39.227Z,3.62
2018-03-20T01:56:08.279Z,3.53
2018-03-20T01:58:36.937Z,3.43
2018-03-20T02:01:06.283Z,3.33
2018-03-20T02:03:34.925Z,3.28
2018-03-20T02:06:03.408Z,3.02
2018-03-20T02:08:33.494Z,2.98
2018-03-20T02:11:01.999Z,2.90
2018-03-20T02:13:30.517Z,2.75
2018-03-20T02:16:00.018Z,2.70
2018-03-20T02:18:28.617Z,2.62
2018-03-20T02:20:57.154Z,2.54
2018-03-20T02:23:25.681Z,2.48
2018-03-20T02:25:54.832Z,2.43
2018-03-20T02:28:23.293Z,2.41
2018-03-20T02:30:51.971Z,2.39
2018-03-20T02:33:20.456Z,2.38
2018-03-20T02:35:48.970Z,2.41
2018-03-20T02:38:17.519Z,2.40
2018-03-20T02:40:46.054Z,2.40
2018-03-20T02:43:14.484Z,2.40
2018-03-20T02:45:43.198Z,2.40
2018-03-20T02:48:11.654Z,2.35
2018-03-20T02:50:40.191Z,2.35
2018-03-20T02:53:09.051Z,2.31
2018-03-20T02:55:37.577Z,2.24
2018-03-20T02:58:06.163Z,2.21
2018-03-20T03:00:34.858Z,2.18
2018-03-20T03:03:03.391Z,2.15
2018-03-20T03:05:31.858Z,2.12
2018-03-20T03:08:01.109Z,2.11
2018-03-20T03:10:29.536Z,2.07
2018-03-20T03:12:58.060Z,2.04
2018-03-20T03:15:26.945Z,2.06
2018-03-20T03:17:55.493Z,1.99
2018-03-20T03:20:23.925Z,1.95
2018-03-20T03:22:52.711Z,1.90
2018-03-20T03:25:21.394Z,1.86
2018-03-20T03:27:49.973Z,1.84
2018-03-20T03:30:18.460Z,1.82
2018-03-20T03:32:47.959Z,1.81
2018-03-20T03:35:16.442Z,1.80
2018-03-20T03:37:45.947Z,1.79
2018-03-20T03:40:15.453Z,1.76
2018-03-20T03:42:43.891Z,1.76
2018-03-20T03:45:13.287Z,1.74
2018-03-20T03:47:41.823Z,1.72
2018-03-20T03:50:10.663Z,1.73
2018-03-20T03:52:39.944Z,1.72
2018-03-20T03:55:08.492Z,1.71
2018-03-20T03:57:37.134Z,1.67
2018-03-20T04:00:06.389Z,1.67
2018-03-20T04:02:35.891Z,1.65
2018-03-20T04:05:04.753Z,1.64
2018-03-20T04:07:35.054Z,1.62
2018-03-20T04:10:04.288Z,1.60
2018-03-20T04:12:32.747Z,1.59
2018-03-20T04:15:01.267Z,1.59
2018-03-20T04:17:29.726Z,1.55
2018-03-20T04:19:58.204Z,1.53
2018-03-20T04:22:26.796Z,1.50
2018-03-20T04:24:55.278Z,1.50
2018-03-20T04:27:23.803Z,1.50
2018-03-20T04:29:52.656Z,1.53
2018-03-20T04:32:21.118Z,1.53
2018-03-20T04:34:49.548Z,1.57
2018-03-20T04:37:18.057Z,1.57
2018-03-20T04:39:46.534Z,1.54
2018-03-20T04:42:15.006Z,1.54
2018-03-20T04:44:44.101Z,1.54
2018-03-20T04:47:12.901Z,1.52
2018-03-20T04:49:41.381Z,1.47
2018-03-20T04:52:10.204Z,1.47
2018-03-20T04:54:38.948Z,1.47
2018-03-20T04:57:07.695Z,1.47
2018-03-20T04:59:37.302Z,1.48
2018-03-20T05:02:05.806Z,1.45
2018-03-20T05:04:34.321Z,1.44
2018-03-20T05:07:02.868Z,1.39
2018-03-20T05:09:31.374Z,1.37
2018-03-20T05:11:59.868Z,1.32
2018-03-20T05:14:28.367Z,1.21
2018-03-20T05:16:56.853Z,1.22
2018-03-20T05:22:47.982Z,1.16
2018-03-20T05:25:16.814Z,1.15
2018-03-20T05:27:46.061Z,1.15
2018-03-20T05:30:14.540Z,1.12
2018-03-20T05:32:43.155Z,1.08
2018-03-20T05:35:11.741Z,1.09
2018-03-20T05:37:40.242Z,1.08
2018-03-20T05:40:08.912Z,1.08
2018-03-20T05:42:37.403Z,1.07
2018-03-20T05:45:05.944Z,1.07
2018-03-20T05:47:40.989Z,1.07
2018-03-20T05:50:14.911Z,1.10
2018-03-20T05:52:43.571Z,1.13
2018-03-20T05:55:12.046Z,1.13
2018-03-20T05:57:40.561Z,1.15
2018-03-20T06:00:10.164Z,1.17
2018-03-20T06:02:38.645Z,1.20
2018-03-20T06:05:07.196Z,1.23
2018-03-20T06:07:35.823Z,1.26
2018-03-20T06:10:04.408Z,1.30
2018-03-20T06:12:32.885Z,1.33
2018-03-20T06:15:03.042Z,1.38
2018-03-20T06:17:35.790Z,1.39
2018-03-20T06:20:04.373Z,1.43
2018-03-20T06:22:32.848Z,1.44
2018-03-20T06:25:01.272Z,1.48
2018-03-20T06:27:29.891Z,1.54
2018-03-20T06:29:58.392Z,1.55
2018-03-20T06:32:26.984Z,1.59
2018-03-20T06:34:55.431Z,1.61
2018-03-20T06:37:23.891Z,1.67
2018-03-20T06:39:52.945Z,1.71
2018-03-20T06:42:21.385Z,1.71
2018-03-20T06:44:49.808Z,1.69
2018-03-20T06:47:18.239Z,1.76
2018-03-20T06:49:46.749Z,1.83
2018-03-20T06:52:15.208Z,1.82
2018-03-20T06:54:43.762Z,1.87
2018-03-20T06:57:13.617Z,1.86
2018-03-20T06:59:42.645Z,1.94
2018-03-20T07:02:11.224Z,1.92
2018-03-20T07:04:41.209Z,2.08
2018-03-20T07:07:09.688Z,2.19
2018-03-20T07:09:38.148Z,2.29
2018-03-20T07:12:06.928Z,2.27
2018-03-20T07:14:47.089Z,2.13
2018-03-20T07:17:15.914Z,2.18
2018-03-20T07:19:44.440Z,2.21
2018-03-20T07:22:13.060Z,2.26
2018-03-20T07:24:41.766Z,2.27
2018-03-20T07:27:10.265Z,2.27
2018-03-20T07:29:38.872Z,2.30
2018-03-20T07:32:07.471Z,2.37
2018-03-20T07:34:36.048Z,2.34
2018-03-20T07:37:04.592Z,2.41
2018-03-20T07:39:33.289Z,2.46
2018-03-20T07:42:01.722Z,2.48
2018-03-20T07:44:30.227Z,2.33
2018-03-20T07:46:59.573Z,2.46
2018-03-20T07:49:28.054Z,2.54
2018-03-20T07:51:56.501Z,2.44
2018-03-20T07:54:25.793Z,2.46
2018-03-20T07:56:54.310Z,2.34
2018-03-20T07:59:23.728Z,2.41
2018-03-20T08:01:52.321Z,2.51
2018-03-20T08:04:20.758Z,2.58
2018-03-20T08:06:49.405Z,2.57
2018-03-20T08:09:18.058Z,2.71
2018-03-20T08:11:46.549Z,2.75
2018-03-20T08:14:15.403Z,2.75
2018-03-20T08:16:45.273Z,2.80
2018-03-20T08:19:13.782Z,2.78
2018-03-20T08:21:42.434Z,2.75
2018-03-20T08:24:11.243Z,2.79
2018-03-20T08:26:39.874Z,2.69
2018-03-20T08:29:08.414Z,2.78
2018-03-20T08:31:36.949Z,2.74
2018-03-20T08:34:05.548Z,2.71
2018-03-20T08:36:34.103Z,2.93
2018-03-20T08:39:03.517Z,2.83
2018-03-20T08:41:31.993Z,2.91
2018-03-20T08:44:00.526Z,2.89
2018-03-20T08:46:29.219Z,3.02
2018-03-20T08:48:57.744Z,3.01
2018-03-20T08:51:26.192Z,3.15
2018-03-20T08:53:54.861Z,3.30
2018-03-20T08:56:23.290Z,3.12
2018-03-20T08:58:51.930Z,3.43
2018-03-20T09:01:20.431Z,3.71
2018-03-20T09:03:48.968Z,4.02
2018-03-20T09:06:17.739Z,4.17
2018-03-20T09:08:46.352Z,4.25
2018-03-20T09:11:15.007Z,4.30
2018-03-20T09:13:43.806Z,3.72
2018-03-20T09:16:13.008Z,3.73
2018-03-20T09:18:41.548Z,3.88
2018-03-20T09:21:10.218Z,4.18
2018-03-20T09:23:39.773Z,4.53
2018-03-20T09:26:08.470Z,4.50
2018-03-20T09:28:37.103Z,4.01
2018-03-20T09:31:05.811Z,4.35
2018-03-20T09:33:34.476Z,4.49
2018-03-20T09:36:02.963Z,4.30
2018-03-20T09:38:32.306Z,4.55
2018-03-20T09:41:00.733Z,4.01
2018-03-20T09:43:29.185Z,4.04
2018-03-20T09:45:58.465Z,4.39
2018-03-20T09:48:27.126Z,4.44
2018-03-20T09:50:55.576Z,4.43
2018-03-20T09:53:24.101Z,4.54
2018-03-20T09:55:52.582Z,4.51
2018-03-20T09:58:21.110Z,4.63
2018-03-20T10:00:49.638Z,5.29
2018-03-20T10:03:18.197Z,5.60
2018-03-20T10:05:47.327Z,5.39
2018-03-20T10:08:16.732Z,5.10
2018-03-20T10:10:45.307Z,5.34
2018-03-20T10:13:13.895Z,5.81
2018-03-20T10:15:42.633Z,5.83
2018-03-20T10:18:11.261Z,6.42
2018-03-20T10:20:39.800Z,6.01
2018-03-20T10:23:08.391Z,5.84
2018-03-20T10:25:37.274Z,6.66
2018-03-20T10:28:05.823Z,6.65
2018-03-20T10:30:34.545Z,6.36
2018-03-20T10:33:03.573Z,6.17
2018-03-20T10:35:33.350Z,6.20
2018-03-20T10:38:01.942Z,6.40
2018-03-20T10:40:30.407Z,6.70
2018-03-20T10:42:58.902Z,6.26
2018-03-20T10:45:27.527Z,6.11
2018-03-20T10:47:56.027Z,5.70
2018-03-20T10:50:25.511Z,6.08
2018-03-20T10:52:54.050Z,6.64
2018-03-20T10:55:22.485Z,6.78
2018-03-20T10:57:50.976Z,6.87
2018-03-20T11:03:27.884Z,7.48
2018-03-20T11:05:56.397Z,6.63
2018-03-20T11:08:24.815Z,6.72
2018-03-20T11:10:53.368Z,6.47
2018-03-20T11:13:21.939Z,6.66
2018-03-20T11:15:54.430Z,7.56
2018-03-20T11:18:22.931Z,6.89
2018-03-20T11:20:51.846Z,6.64
2018-03-20T11:23:20.329Z,6.79
2018-03-20T11:25:49.050Z,7.39
2018-03-20T11:28:17.531Z,7.50
2018-03-20T11:30:46.055Z,7.01
2018-03-20T11:33:14.612Z,7.07
2018-03-20T11:35:43.248Z,7.18
2018-03-20T11:38:11.880Z,7.19
2018-03-20T11:40:40.534Z,7.21
2018-03-20T11:43:09.293Z,6.96
2018-03-20T11:45:42.788Z,6.72
2018-03-20T11:48:11.646Z,7.12
2018-03-20T11:50:40.254Z,7.00
2018-03-20T11:53:09.047Z,7.32
2018-03-20T11:55:37.864Z,7.17
2018-03-20T11:58:06.617Z,7.50
2018-03-20T12:00:36.113Z,6.95
2018-03-20T12:03:04.826Z,7.21
2018-03-20T12:05:33.403Z,7.07
2018-03-20T12:11:06.636Z,7.55
2018-03-20T12:13:35.176Z,7.41
2018-03-20T12:16:03.745Z,7.44
2018-03-20T12:18:32.222Z,7.71
2018-03-20T12:21:00.839Z,7.75
2018-03-20T12:23:29.926Z,8.22
2018-03-20T12:25:58.374Z,7.37
2018-03-20T12:28:26.861Z,6.74
2018-03-20T12:30:55.465Z,6.62
2018-03-20T12:33:23.959Z,6.80
2018-03-20T12:35:53.083Z,6.75
2018-03-20T12:38:21.529Z,6.77
2018-03-20T12:40:49.987Z,6.61
2018-03-20T12:43:18.498Z,6.94
2018-03-20T12:45:47.045Z,6.78
2018-03-20T12:48:15.669Z,6.93
2018-03-20T12:50:44.354Z,6.95
2018-03-20T12:53:13.165Z,7.49
2018-03-20T12:55:41.695Z,6.56
2018-03-20T12:58:12.487Z,7.38
2018-03-20T13:00:41.078Z,6.80
2018-03-20T13:03:09.923Z,7.00
2018-03-20T13:05:38.644Z,7.45
2018-03-20T13:08:07.403Z,7.80
2018-03-20T13:10:36.457Z,7.51
2018-03-20T13:13:05.505Z,7.02
2018-03-20T13:15:41.346Z,6.68
2018-03-20T13:18:09.927Z,7.55
2018-03-20T13:20:38.514Z,7.19
2018-03-20T13:23:07.228Z,7.78
2018-03-20T13:25:36.291Z,7.24
2018-03-20T13:28:04.985Z,7.55
2018-03-20T13:30:33.562Z,7.25
2018-03-20T13:33:02.188Z,7.12
2018-03-20T13:35:30.879Z,6.83
2018-03-20T13:37:59.405Z,6.64
2018-03-20T13:40:30.636Z,6.92
2018-03-20T13:42:59.148Z,6.61
2018-03-20T13:45:28.227Z,6.48
2018-03-20T13:47:56.753Z,6.24
2018-03-20T13:50:25.321Z,6.12
2018-03-20T13:52:53.791Z,5.55
2018-03-20T13:55:23.219Z,5.43
2018-03-20T13:57:51.680Z,5.55
2018-03-20T14:00:20.256Z,5.54
2018-03-20T14:02:49.609Z,5.58
2018-03-20T14:05:20.798Z,5.51
2018-03-20T14:07:49.378Z,5.71
2018-03-20T14:10:18.272Z,5.38
2018-03-20T14:12:46.955Z,5.66
2018-03-20T14:15:15.535Z,5.76
2018-03-20T14:17:44.124Z,5.63
2018-03-20T14:20:12.621Z,5.62
2018-03-20T14:22:41.193Z,5.68
2018-03-20T14:25:10.405Z,5.49
2018-03-20T14:27:39.295Z,5.42
2018-03-20T14:30:07.962Z,5.60
2018-03-20T14:32:37.327Z,5.47
2018-03-20T14:35:06.176Z,5.28
2018-03-20T14:37:34.941Z,5.28
2018-03-20T14:40:04.271Z,5.62
2018-03-20T14:42:33.261Z,5.19
2018-03-20T14:45:01.731Z,5.12
2018-03-20T14:47:31.315Z,5.25
2018-03-20T14:49:59.799Z,5.34
2018-03-20T14:52:28.281Z,5.47
2018-03-20T14:54:57.022Z,5.39
2018-03-20T14:57:25.550Z,5.38
2018-03-20T14:59:54.032Z,5.57
2018-03-20T15:02:22.532Z,5.69
2018-03-20T15:04:52.132Z,5.77
2018-03-20T15:07:20.737Z,5.74
2018-03-20T15:09:49.519Z,5.32
2018-03-20T15:12:18.180Z,5.24
2018-03-20T15:14:49.742Z,5.42
2018-03-20T15:17:18.940Z,5.26
2018-03-20T15:19:48.177Z,5.15
2018-03-20T15:22:16.720Z,5.14
2018-03-20T15:24:45.312Z,5.18
2018-03-20T15:27:13.909Z,5.23
2018-03-20T15:29:42.509Z,5.24
2018-03-20T15:32:11.360Z,5.30
2018-03-20T15:34:40.050Z,5.26
2018-03-20T15:37:08.985Z,5.36
2018-03-20T15:39:39.748Z,5.29
2018-03-20T15:42:08.398Z,5.30
2018-03-20T15:44:37.166Z,5.26
2018-03-20T15:47:06.341Z,5.20
2018-03-20T15:49:34.927Z,5.13
2018-03-20T15:52:03.948Z,5.07
2018-03-20T15:54:32.645Z,5.10
2018-03-20T15:57:01.186Z,5.08
2018-03-20T15:59:29.696Z,5.04
2018-03-20T16:01:58.281Z,5.03
2018-03-20T16:04:26.838Z,5.08
2018-03-20T16:06:55.339Z,5.15
2018-03-20T16:09:24.104Z,5.13
2018-03-20T16:11:52.587Z,5.24
2018-03-20T16:14:21.368Z,5.19
2018-03-20T16:16:49.867Z,5.12
2018-03-20T16:19:18.451Z,5.12
2018-03-20T16:21:47.170Z,5.21
2018-03-20T16:24:16.131Z,5.06
2018-03-20T16:26:45.182Z,5.15
2018-03-20T16:29:14.310Z,5.31
2018-03-20T16:31:43.616Z,5.27
2018-03-20T16:34:12.141Z,5.16
2018-03-20T16:36:40.698Z,5.06
2018-03-20T16:39:10.153Z,4.98
2018-03-20T16:41:39.622Z,4.98
2018-03-20T16:44:08.531Z,4.94
2018-03-20T16:46:37.699Z,4.95
2018-03-20T16:49:06.686Z,4.95
2018-03-20T16:51:35.506Z,4.95
2018-03-20T16:54:04.685Z,4.97
2018-03-20T16:56:33.930Z,4.98
2018-03-20T16:59:03.501Z,4.86
2018-03-20T17:01:32.734Z,4.87
2018-03-20T17:04:01.446Z,4.82
2018-03-20T17:06:29.982Z,4.84
2018-03-20T17:08:58.587Z,4.80
2018-03-20T17:11:27.108Z,4.80
2018-03-20T17:13:55.684Z,4.71
2018-03-20T17:16:24.336Z,4.66
2018-03-20T17:18:53.051Z,4.65
2018-03-20T17:21:21.851Z,4.62
2018-03-20T17:23:50.442Z,4.58
2018-03-20T17:26:18.909Z,4.52
2018-03-20T17:28:48.142Z,4.54
2018-03-20T17:31:17.557Z,4.47
2018-03-20T17:33:46.094Z,4.46
2018-03-20T17:36:14.772Z,4.49
2018-03-20T17:38:43.916Z,4.54
2018-03-20T17:41:12.570Z,4.48
2018-03-20T17:43:41.184Z,4.58
2018-03-20T17:46:10.901Z,4.54
2018-03-20T17:48:39.792Z,4.55
2018-03-20T17:51:08.321Z,4.52
2018-03-20T17:53:37.554Z,4.48
2018-03-20T17:56:06.139Z,4.43
2018-03-20T17:58:34.897Z,4.48
2018-03-20T18:01:03.883Z,4.48
2018-03-20T18:03:32.471Z,4.38
2018-03-20T18:06:00.986Z,4.31
2018-03-20T18:08:29.715Z,4.29
2018-03-20T18:10:58.427Z,4.20
2018-03-20T18:13:26.941Z,4.14
2018-03-20T18:16:00.137Z,4.10
2018-03-20T18:18:29.224Z,4.02
2018-03-20T18:20:58.631Z,4.03
2018-03-20T18:23:29.120Z,4.08
2018-03-20T18:25:57.611Z,4.01
2018-03-20T18:28:26.882Z,3.94
2018-03-20T18:30:55.459Z,3.93
2018-03-20T18:33:25.249Z,3.92
2018-03-20T18:35:54.245Z,3.93
2018-03-20T18:38:25.021Z,3.85
2018-03-20T18:40:53.650Z,3.83
2018-03-20T18:43:22.981Z,3.86
2018-03-20T18:45:52.062Z,3.80
2018-03-20T18:48:21.562Z,3.74
2018-03-20T18:50:50.164Z,3.72
2018-03-20T18:53:20.648Z,3.70
2018-03-20T18:55:50.144Z,3.66
2018-03-20T18:58:19.276Z,3.64
2018-03-20T19:00:49.876Z,3.62
2018-03-20T19:03:18.540Z,3.54
2018-03-20T19:05:47.482Z,3.44
2018-03-20T19:08:16.199Z,3.42
2018-03-20T19:10:45.324Z,3.40
2018-03-20T19:13:15.533Z,3.37
2018-03-20T19:15:46.892Z,3.39
2018-03-20T19:18:15.670Z,3.35
2018-03-20T19:20:44.384Z,3.32
2018-03-20T19:23:19.988Z,3.35
2018-03-20T19:25:53.095Z,3.29
2018-03-20T19:28:27.838Z,3.22
2018-03-20T19:30:56.416Z,3.16
2018-03-20T19:33:25.921Z,3.11
2018-03-20T19:35:54.489Z,3.08
2018-03-20T19:38:23.159Z,3.03
2018-03-20T19:40:51.803Z,3.03
2018-03-20T19:43:21.138Z,2.99
2018-03-20T19:45:53.244Z,2.95
2018-03-20T19:48:24.705Z,3.02
2018-03-20T19:50:53.587Z,2.96
2018-03-20T19:53:25.770Z,2.93
2018-03-20T19:55:56.596Z,2.89
2018-03-20T19:58:25.214Z,2.88
2018-03-20T20:00:54.411Z,2.90
2018-03-20T20:03:26.260Z,2.81
2018-03-20T20:05:54.998Z,2.72
2018-03-20T20:08:23.581Z,2.72
2018-03-20T20:10:52.145Z,2.59
2018-03-20T20:13:20.775Z,2.56
2018-03-20T20:15:49.457Z,2.51
2018-03-20T20:18:18.151Z,2.49
2018-03-20T20:20:46.889Z,2.48
2018-03-20T20:23:15.783Z,2.40
2018-03-20T20:25:45.803Z,2.35
2018-03-20T20:28:14.358Z,2.26
2018-03-20T20:30:42.995Z,2.33
2018-03-20T20:33:11.937Z,2.22
2018-03-20T20:35:40.599Z,2.17
2018-03-20T20:38:09.955Z,2.15
2018-03-20T20:40:38.882Z,2.12
2018-03-20T20:43:07.773Z,2.12
2018-03-20T20:45:36.520Z,2.16
2018-03-20T20:48:05.790Z,2.27
2018-03-20T20:50:35.443Z,2.44
2018-03-20T20:53:04.155Z,2.52
2018-03-20T20:55:33.481Z,2.54
2018-03-20T20:58:03.328Z,2.42
2018-03-20T21:00:32.368Z,2.11
2018-03-20T21:03:00.949Z,1.84
2018-03-20T21:05:29.636Z,1.69
2018-03-20T21:07:58.221Z,1.65
2018-03-20T21:10:26.910Z,1.57
2018-03-20T21:12:55.436Z,1.53
2018-03-20T21:15:24.147Z,1.53
2018-03-20T21:17:52.810Z,1.52
2018-03-20T21:20:21.787Z,1.51
2018-03-20T21:22:50.329Z,1.46
2018-03-20T21:25:19.303Z,1.56
2018-03-20T21:27:48.528Z,1.57
2018-03-20T21:30:17.132Z,1.83
2018-03-20T21:32:46.570Z,1.77
2018-03-20T21:35:15.292Z,1.71
2018-03-20T21:37:44.177Z,1.52
2018-03-20T21:40:12.985Z,1.39
2018-03-20T21:42:41.673Z,1.35
2018-03-20T21:45:10.545Z,1.32
2018-03-20T21:47:39.559Z,1.31
2018-03-20T21:50:08.357Z,1.32
2018-03-20T21:52:37.178Z,1.32
2018-03-20T21:55:05.922Z,1.30
2018-03-20T21:57:34.562Z,1.25
2018-03-20T22:00:03.171Z,1.36
2018-03-20T22:02:32.030Z,1.42
2018-03-20T22:05:00.920Z,1.58
2018-03-20T22:07:29.375Z,1.65
2018-03-20T22:09:58.010Z,1.67
2018-03-20T22:12:26.488Z,1.72
2018-03-20T22:14:55.047Z,1.64
2018-03-20T22:17:23.584Z,1.54
2018-03-20T22:19:52.239Z,1.69
2018-03-20T22:22:20.696Z,1.81
2018-03-20T22:24:49.208Z,1.73
2018-03-20T22:27:17.709Z,1.74
2018-03-20T22:29:46.197Z,1.81
2018-03-20T22:32:14.726Z,1.80
2018-03-20T22:34:43.218Z,1.78
2018-03-20T22:37:11.812Z,1.68
2018-03-20T22:39:40.394Z,1.62
2018-03-20T22:42:09.191Z,1.57
2018-03-20T22:44:38.050Z,1.38
2018-03-20T22:47:06.894Z,1.29
2018-03-20T22:49:35.452Z,1.22
2018-03-20T22:52:03.999Z,1.29
2018-03-20T22:54:32.827Z,1.19
2018-03-20T22:57:01.479Z,1.09
2018-03-20T22:59:30.061Z,1.14
2018-03-20T23:01:58.952Z,1.17
2018-03-20T23:04:28.360Z,1.22
2018-03-20T23:06:57.124Z,1.11
2018-03-20T23:09:25.784Z,1.25
2018-03-20T23:11:54.759Z,1.43
2018-03-20T23:14:23.333Z,1.44
2018-03-20T23:16:52.012Z,1.50
2018-03-20T23:19:20.500Z,1.51
2018-03-20T23:21:49.057Z,1.37
2018-03-20T23:24:17.900Z,1.27
2018-03-20T23:26:46.546Z,1.28
2018-03-20T23:29:15.191Z,1.24
2018-03-20T23:31:44.307Z,1.40
2018-03-20T23:34:12.989Z,1.42
2018-03-20T23:36:41.522Z,1.38
2018-03-20T23:39:10.107Z,1.30
2018-03-20T23:41:38.954Z,1.17
2018-03-20T23:44:07.496Z,1.18
2018-03-20T23:46:35.986Z,1.11
2018-03-20T23:49:04.665Z,1.09
2018-03-20T23:51:33.095Z,1.08
2018-03-20T23:54:01.601Z,0.96
2018-03-20T23:56:30.262Z,0.95
2018-03-20T23:58:58.686Z,0.92
